Time;durP1;ratioP1;P1;durP2;ratioP2;P2;SDS_P1;SDS_P2;PMS_P1;PMS_P2;Temp;Humidity;BMP_temperature;BMP_pressure;BME280_temperature;BME280_humidity;BME280_pressure;Samples;Min_cycle;Max_cycle;Signal;HPM_P1;HPM_P2
2022/09/26 00:01:54;;;;;;;11.18;2.22;;;12.20;99.90;;;;;;6243039;23;20052;-79
2022/09/26 00:04:23;;;;;;;5.85;1.58;;;12.20;99.90;;;;;;6191401;23;20028;-78
2022/09/26 00:06:51;;;;;;;8.63;1.65;;;12.20;99.90;;;;;;6244572;23;20020;-78
2022/09/26 00:09:17;;;;;;;5.93;1.52;;;12.20;99.90;;;;;;6216882;23;20031;-77
2022/09/26 00:11:44;;;;;;;5.35;1.90;;;12.20;99.90;;;;;;6191048;23;20479;-77
2022/09/26 00:14:23;;;;;;;6.63;1.45;;;12.20;99.90;;;;;;6243378;23;20381;-78
2022/09/26 00:16:49;;;;;;;8.10;1.63;;;12.20;99.90;;;;;;6215908;23;20463;-78
2022/09/26 00:19:19;;;;;;;6.13;1.70;;;12.10;99.90;;;;;;6215717;23;20456;-78
2022/09/26 00:21:44;;;;;;;6.43;1.52;;;12.10;99.90;;;;;;6241857;23;20016;-77
2022/09/26 00:24:11;;;;;;;7.60;2.10;;;12.10;99.90;;;;;;6216089;23;20077;-78
2022/09/26 00:26:37;;;;;;;5.22;1.33;;;12.10;99.90;;;;;;6215794;23;20063;-78
2022/09/26 00:29:07;;;;;;;7.43;1.35;;;12.10;99.90;;;;;;6242863;23;20713;-78
2022/09/26 00:31:38;;;;;;;7.03;1.65;;;12.10;99.90;;;;;;6215614;23;20103;-78
2022/09/26 00:34:04;;;;;;;7.47;1.60;;;12.10;99.90;;;;;;6215954;23;20483;-78
2022/09/26 00:36:31;;;;;;;7.03;1.50;;;12.10;99.90;;;;;;6244124;23;20023;-77
2022/09/26 00:38:57;;;;;;;7.50;1.30;;;12.10;99.90;;;;;;6191229;23;20031;-80
2022/09/26 00:41:23;;;;;;;5.25;1.23;;;12.10;99.90;;;;;;6242700;23;20012;-79
2022/09/26 00:43:55;;;;;;;8.70;1.30;;;12.10;99.90;;;;;;6242302;23;20035;-78
2022/09/26 00:46:42;;;;;;;7.93;1.55;;;12.10;99.90;;;;;;6215837;23;20544;-77
2022/09/26 00:49:29;;;;;;;7.40;1.52;;;12.10;99.90;;;;;;6243157;23;20021;-79
2022/09/26 00:52:16;;;;;;;7.03;2.33;;;12.10;99.90;;;;;;6244624;23;20123;-79
2022/09/26 00:54:45;;;;;;;6.65;1.50;;;12.10;99.90;;;;;;6242233;23;20020;-78
2022/09/26 00:57:30;;;;;;;4.75;1.20;;;12.10;99.90;;;;;;6215680;23;20020;-77
2022/09/26 01:00:01;;;;;;;4.55;1.23;;;12.10;99.90;;;;;;6242706;23;20031;-77
2022/09/26 01:02:28;;;;;;;7.18;1.70;;;12.10;99.90;;;;;;6215445;23;20099;-78
2022/09/26 01:04:55;;;;;;;4.50;1.27;;;12.20;99.90;;;;;;6240797;23;20027;-78
2022/09/26 01:07:25;;;;;;;5.97;1.40;;;12.20;99.90;;;;;;6216890;23;20089;-76
2022/09/26 01:09:51;;;;;;;6.07;1.70;;;12.20;99.90;;;;;;6242229;23;20024;-79
2022/09/26 01:12:19;;;;;;;6.35;1.30;;;12.20;99.90;;;;;;6242313;23;20486;-78
2022/09/26 01:14:47;;;;;;;5.05;1.33;;;12.20;99.90;;;;;;6215332;23;20666;-78
2022/09/26 01:17:14;;;;;;;5.25;1.25;;;12.20;99.90;;;;;;6242413;23;20466;-78
2022/09/26 01:20:10;;;;;;;3.92;1.33;;;12.20;99.90;;;;;;6243362;23;20439;-79
2022/09/26 01:22:36;;;;;;;;;;;12.20;99.90;;;;;;6216311;23;20024;-78
2022/09/26 01:25:15;;;;;;;5.03;1.50;;;12.20;99.90;;;;;;6243589;23;19919;-79
2022/09/26 01:27:59;;;;;;;8.57;1.15;;;12.20;99.90;;;;;;6244334;23;20078;-77
2022/09/26 01:30:30;;;;;;;5.68;1.20;;;12.20;99.90;;;;;;6217634;23;20078;-78
2022/09/26 01:32:56;;;;;;;4.60;1.52;;;12.20;99.90;;;;;;6218064;23;20360;-78
2022/09/26 01:36:08;;;;;;;9.32;1.33;;;12.20;99.90;;;;;;6246522;23;20025;-77
2022/09/26 01:39:08;;;;;;;3.78;1.20;;;12.20;99.90;;;;;;6186921;23;20025;-78
2022/09/26 01:41:55;;;;;;;7.00;1.63;;;12.10;99.90;;;;;;6187046;23;20029;-76
2022/09/26 01:44:27;;;;;;;8.18;2.15;;;12.10;99.90;;;;;;6239875;23;20020;-78
2022/09/26 01:47:18;;;;;;;7.93;1.50;;;12.00;99.90;;;;;;6219638;23;20052;-79
2022/09/26 01:50:02;;;;;;;3.60;0.98;;;12.00;99.90;;;;;;6245617;23;20024;-79
2022/09/26 01:52:49;;;;;;;6.20;1.60;;;12.00;99.90;;;;;;6216951;23;20103;-77
2022/09/26 01:55:22;;;;;;;3.58;1.13;;;12.00;99.90;;;;;;6217433;23;20254;-79
2022/09/26 01:58:02;;;;;;;6.78;1.70;;;11.90;99.90;;;;;;6244136;23;20519;-77
2022/09/26 02:00:29;;;;;;;7.93;1.42;;;11.90;99.90;;;;;;6217160;23;20452;-75
2022/09/26 02:02:56;;;;;;;6.00;1.85;;;11.90;99.90;;;;;;6191866;23;20016;-77
2022/09/26 02:05:41;;;;;;;7.65;1.60;;;11.80;99.90;;;;;;6244126;23;20098;-76
2022/09/26 02:08:23;;;;;;;4.57;1.77;;;11.80;99.90;;;;;;6217260;23;20119;-76
2022/09/26 02:10:53;;;;;;;7.85;2.00;;;11.80;99.90;;;;;;6244050;23;20031;-79
2022/09/26 02:13:32;;;;;;;7.28;1.92;;;11.80;99.90;;;;;;6243504;23;20028;-77
2022/09/26 02:16:07;;;;;;;6.20;2.53;;;11.80;99.90;;;;;;6217343;23;20027;-76
2022/09/26 02:18:41;;;;;;;7.57;2.50;;;11.80;99.90;;;;;;6216925;23;20644;-76
2022/09/26 02:21:27;;;;;;;9.02;2.95;;;11.80;99.90;;;;;;6216580;23;20062;-79
2022/09/26 02:23:53;;;;;;;8.65;2.45;;;11.80;99.90;;;;;;6243672;23;20744;-79
2022/09/26 02:26:19;;;;;;;8.77;2.35;;;11.70;99.90;;;;;;6244113;23;20024;-77
2022/09/26 02:28:46;;;;;;;7.72;2.88;;;11.80;99.90;;;;;;6243968;23;20039;-76
2022/09/26 02:31:19;;;;;;;6.97;2.20;;;11.70;99.90;;;;;;6186193;23;20118;-78
2022/09/26 02:33:50;;;;;;;6.53;2.53;;;11.70;99.90;;;;;;6213558;23;20409;-79
2022/09/26 02:36:18;;;;;;;9.43;2.47;;;11.70;99.90;;;;;;6211369;23;20021;-80
2022/09/26 02:38:44;;;;;;;10.25;2.90;;;11.70;99.90;;;;;;6212230;23;20025;-76
2022/09/26 02:41:12;;;;;;;12.07;2.95;;;11.70;99.90;;;;;;6211778;23;20023;-77
2022/09/26 02:43:38;;;;;;;10.40;2.72;;;11.70;99.90;;;;;;6213061;23;20103;-77
2022/09/26 02:46:18;;;;;;;7.80;3.08;;;11.70;99.90;;;;;;6213198;23;20060;-77
2022/09/26 02:49:14;;;;;;;6.68;3.25;;;11.70;99.90;;;;;;6211882;23;20032;-78
2022/09/26 02:51:55;;;;;;;6.72;2.97;;;11.70;99.90;;;;;;6216754;23;20020;-77
2022/09/26 02:54:34;;;;;;;8.40;3.20;;;11.70;99.90;;;;;;6211725;23;20024;-80
2022/09/26 02:57:21;;;;;;;8.98;3.90;;;11.70;99.90;;;;;;6211801;23;20022;-77
2022/09/26 03:00:34;;;;;;;11.43;3.58;;;11.70;99.90;;;;;;6186487;23;20095;-77
2022/09/26 03:03:18;;;;;;;12.95;4.10;;;11.70;99.90;;;;;;6166419;23;20102;-78
2022/09/26 03:05:46;;;;;;;12.07;3.60;;;11.70;99.90;;;;;;6213487;23;20020;-77
2022/09/26 03:08:23;;;;;;;10.25;4.03;;;11.70;99.90;;;;;;6215089;23;20032;-76
2022/09/26 03:10:51;;;;;;;8.50;3.63;;;11.60;99.90;;;;;;6211308;23;20024;-76
2022/09/26 03:13:17;;;;;;;9.93;3.75;;;11.60;99.90;;;;;;6212654;23;20020;-78
2022/09/26 03:15:51;;;;;;;9.57;3.88;;;11.60;99.90;;;;;;6186427;23;20429;-75
2022/09/26 03:18:21;;;;;;;10.77;3.63;;;11.60;99.90;;;;;;6212890;23;20021;-77
2022/09/26 03:20:47;;;;;;;8.85;3.50;;;11.60;99.90;;;;;;6211096;23;20043;-80
2022/09/26 03:23:13;;;;;;;8.93;3.75;;;11.60;99.90;;;;;;6211624;23;20399;-77
2022/09/26 03:25:39;;;;;;;8.27;3.55;;;11.60;99.90;;;;;;6237424;23;20052;-78
2022/09/26 03:28:05;;;;;;;9.10;3.92;;;11.50;99.90;;;;;;6212630;23;20032;-78
2022/09/26 03:30:32;;;;;;;15.45;4.38;;;11.50;99.90;;;;;;6212856;23;20020;-77
2022/09/26 03:32:57;;;;;;;10.68;3.58;;;11.50;99.90;;;;;;6216114;23;20032;-77
2022/09/26 03:35:23;;;;;;;10.25;3.88;;;11.60;99.90;;;;;;6243020;23;20050;-77
2022/09/26 03:37:49;;;;;;;9.38;4.70;;;11.50;99.90;;;;;;6243196;23;20020;-78
2022/09/26 03:40:15;;;;;;;15.15;4.18;;;11.60;99.90;;;;;;6191400;23;20029;-79
2022/09/26 03:42:41;;;;;;;12.82;4.45;;;11.50;99.90;;;;;;6243842;23;20024;-77
2022/09/26 03:45:09;;;;;;;10.48;4.47;;;11.60;99.90;;;;;;6216302;23;20480;-76
2022/09/26 03:47:39;;;;;;;14.60;5.38;;;11.50;99.90;;;;;;6243579;23;20091;-78
2022/09/26 03:50:06;;;;;;;11.55;5.07;;;11.60;99.90;;;;;;6215923;23;20020;-79
2022/09/26 03:52:31;;;;;;;9.73;4.30;;;11.60;99.90;;;;;;6243184;23;20031;-77
2022/09/26 03:54:57;;;;;;;10.10;4.50;;;11.60;99.90;;;;;;6216407;23;20028;-80
2022/09/26 03:57:23;;;;;;;9.23;3.90;;;11.60;99.90;;;;;;6215876;23;20027;-78
2022/09/26 03:59:49;;;;;;;13.65;4.97;;;11.60;99.90;;;;;;6241531;23;20452;-75
2022/09/26 04:02:15;;;;;;;11.18;4.63;;;11.60;99.90;;;;;;6216012;23;20059;-79
2022/09/26 04:04:41;;;;;;;15.20;4.53;;;11.60;99.90;;;;;;6215934;23;20078;-77
2022/09/26 04:07:07;;;;;;;11.68;4.40;;;11.60;99.90;;;;;;6243894;23;20028;-80
2022/09/26 04:09:33;;;;;;;7.53;4.05;;;11.60;99.90;;;;;;6218370;23;20066;-77
2022/09/26 04:11:59;;;;;;;7.22;3.50;;;11.60;99.90;;;;;;6242880;23;20069;-76
2022/09/26 04:14:26;;;;;;;10.00;3.50;;;11.60;99.90;;;;;;6215702;23;20100;-79
2022/09/26 04:16:52;;;;;;;12.50;4.88;;;11.60;99.90;;;;;;6190770;23;20042;-76
2022/09/26 04:19:18;;;;;;;9.90;3.80;;;11.60;99.90;;;;;;6242407;23;20111;-82
2022/09/26 04:21:44;;;;;;;10.07;4.80;;;11.60;99.90;;;;;;6216903;23;20109;-78
2022/09/26 04:24:14;;;;;;;14.65;4.53;;;11.60;99.90;;;;;;6242424;23;20039;-78
2022/09/26 04:26:42;;;;;;;9.90;4.28;;;11.60;99.90;;;;;;6242212;23;20016;-76
2022/09/26 04:29:08;;;;;;;9.75;3.45;;;11.60;99.90;;;;;;6242145;23;20032;-83
2022/09/26 04:31:38;;;;;;;7.97;4.05;;;11.60;99.90;;;;;;6241370;23;20024;-79
2022/09/26 04:34:04;;;;;;;10.07;3.70;;;11.60;99.90;;;;;;6214650;23;20511;-77
2022/09/26 04:36:31;;;;;;;9.95;3.80;;;11.60;99.90;;;;;;6241825;23;20024;-77
2022/09/26 04:38:58;;;;;;;8.80;4.55;;;11.60;99.90;;;;;;6215435;23;20329;-76
2022/09/26 04:41:24;;;;;;;6.65;3.40;;;11.60;99.90;;;;;;6241807;23;20054;-78
2022/09/26 04:43:52;;;;;;;10.38;3.67;;;11.50;99.90;;;;;;6241222;23;20456;-78
2022/09/26 04:46:20;;;;;;;7.47;3.28;;;11.50;99.90;;;;;;6242015;23;20107;-77
2022/09/26 04:48:46;;;;;;;10.75;3.80;;;11.50;99.90;;;;;;6241208;23;20024;-77
2022/09/26 04:51:14;;;;;;;8.35;3.95;;;11.50;99.90;;;;;;6241218;23;20463;-79
2022/09/26 04:53:41;;;;;;;7.88;3.53;;;11.50;99.90;;;;;;6241787;23;20468;-76
2022/09/26 04:56:09;;;;;;;10.25;3.78;;;11.50;99.90;;;;;;6190544;23;20020;-76
2022/09/26 04:58:37;;;;;;;17.70;4.22;;;11.50;99.90;;;;;;6214347;23;20055;-78
2022/09/26 05:01:08;;;;;;;8.82;4.22;;;11.40;99.90;;;;;;6241703;23;20020;-77
2022/09/26 05:03:38;;;;;;;8.70;4.00;;;11.40;99.90;;;;;;6214955;23;20339;-77
2022/09/26 05:06:07;;;;;;;8.88;4.30;;;11.40;99.90;;;;;;6241956;23;20028;-77
2022/09/26 05:08:43;;;;;;;10.98;3.88;;;11.40;99.90;;;;;;6240313;23;20048;-80
2022/09/26 05:11:09;;;;;;;13.27;4.10;;;11.40;99.90;;;;;;6214433;23;20456;-76
2022/09/26 05:13:37;;;;;;;10.25;3.88;;;11.40;99.90;;;;;;6241369;23;20027;-77
2022/09/26 05:16:07;;;;;;;8.50;4.82;;;11.40;99.90;;;;;;6241415;23;20021;-77
2022/09/26 05:18:33;;;;;;;9.55;4.35;;;11.40;99.90;;;;;;6242132;23;20024;-78
2022/09/26 05:21:00;;;;;;;12.90;5.25;;;11.30;99.90;;;;;;6241297;23;20064;-77
2022/09/26 05:26:40;;;;;;;10.70;4.90;;;11.30;99.90;;;;;;6216014;23;20020;-77
2022/09/26 05:29:06;;;;;;;12.65;4.82;;;11.30;99.90;;;;;;6241817;23;20028;-82
2022/09/26 05:31:35;;;;;;;8.35;4.63;;;11.30;99.90;;;;;;6241185;23;20022;-78
2022/09/26 05:34:03;;;;;;;9.23;5.07;;;11.30;99.90;;;;;;6214277;23;20102;-81
2022/09/26 05:36:29;;;;;;;8.10;5.30;;;11.30;99.90;;;;;;6213995;23;20124;-78
2022/09/26 05:38:55;;;;;;;13.68;5.07;;;11.30;99.90;;;;;;6241168;23;20066;-78
2022/09/26 05:41:21;;;;;;;14.05;5.65;;;11.30;99.90;;;;;;6189720;23;20020;-81
2022/09/26 05:43:47;;;;;;;8.70;4.93;;;11.30;99.90;;;;;;6239639;23;20035;-78
2022/09/26 05:46:14;;;;;;;11.75;5.25;;;11.30;99.90;;;;;;6189049;23;20020;-79
2022/09/26 05:48:41;;;;;;;15.13;6.15;;;11.30;99.90;;;;;;6241872;23;20339;-81
2022/09/26 05:51:15;;;;;;;8.77;5.78;;;11.30;99.90;;;;;;6214004;23;20098;-78
2022/09/26 05:53:43;;;;;;;8.93;5.97;;;11.30;99.90;;;;;;6241728;23;20028;-78
2022/09/26 05:56:10;;;;;;;13.38;6.07;;;11.30;99.90;;;;;;6243195;23;20021;-81
2022/09/26 05:58:38;;;;;;;11.55;6.40;;;11.30;99.90;;;;;;6216483;23;20035;-81
2022/09/26 06:01:12;;;;;;;11.85;5.63;;;11.40;99.90;;;;;;6240269;23;20095;-76
2022/09/26 06:03:42;;;;;;;18.00;6.72;;;11.40;99.90;;;;;;6215176;23;20028;-79
2022/09/26 06:06:11;;;;;;;14.35;5.85;;;11.30;99.90;;;;;;6240123;23;20070;-80
2022/09/26 06:08:38;;;;;;;16.63;5.68;;;11.40;99.90;;;;;;6241410;23;20063;-81
2022/09/26 06:11:11;;;;;;;10.77;5.53;;;11.40;99.90;;;;;;6244324;23;20048;-82
2022/09/26 06:13:37;;;;;;;10.25;5.32;;;11.40;99.90;;;;;;6243335;23;20027;-79
2022/09/26 06:16:06;;;;;;;10.70;4.95;;;11.40;99.90;;;;;;6216455;23;20024;-79
2022/09/26 06:18:33;;;;;;;15.10;5.55;;;11.40;99.90;;;;;;6244237;23;20090;-89
2022/09/26 06:21:03;;;;;;;10.07;4.78;;;11.40;99.90;;;;;;6217162;23;20020;-80
2022/09/26 06:23:30;;;;;;;12.90;4.85;;;11.40;99.90;;;;;;6244594;23;20035;-82
2022/09/26 06:25:57;;;;;;;11.50;5.05;;;11.40;99.90;;;;;;6219207;23;20055;-80
2022/09/26 06:28:25;;;;;;;9.10;4.75;;;11.40;99.90;;;;;;6246412;23;20024;-77
2022/09/26 06:30:52;;;;;;;12.02;5.70;;;11.40;99.90;;;;;;6243904;23;20031;-82
2022/09/26 06:33:18;;;;;;;14.68;4.90;;;11.40;99.90;;;;;;6244446;23;20028;-84
2022/09/26 06:35:44;;;;;;;12.40;5.20;;;11.50;99.90;;;;;;6216303;23;20035;-78
2022/09/26 06:38:10;;;;;;;16.35;5.20;;;11.50;99.90;;;;;;6217164;23;20028;-78
2022/09/26 06:40:36;;;;;;;8.57;4.78;;;11.50;99.90;;;;;;6243533;23;20028;-76
2022/09/26 06:43:02;;;;;;;12.77;5.05;;;11.40;99.90;;;;;;6220355;23;20423;-84
2022/09/26 06:45:28;;;;;;;8.55;4.72;;;11.40;99.90;;;;;;6217463;23;20106;-84
2022/09/26 06:47:54;;;;;;;9.23;4.00;;;11.40;99.90;;;;;;6243506;23;20121;-82
2022/09/26 06:50:21;;;;;;;7.85;3.95;;;11.40;99.90;;;;;;6242482;23;20023;-81
2022/09/26 06:52:47;;;;;;;9.63;3.95;;;11.40;99.90;;;;;;6243933;23;20113;-79
2022/09/26 06:55:14;;;;;;;10.57;4.00;;;11.40;99.90;;;;;;6242960;23;20028;-79
2022/09/26 06:57:42;;;;;;;25.42;5.35;;;11.40;99.90;;;;;;6215851;23;20047;-81
2022/09/26 07:00:11;;;;;;;9.23;4.30;;;11.40;99.90;;;;;;6217423;23;20034;-81
2022/09/26 07:02:36;;;;;;;9.40;4.97;;;11.40;99.90;;;;;;6218350;23;20345;-82
2022/09/26 07:05:04;;;;;;;7.70;4.00;;;11.40;99.90;;;;;;6242668;23;20035;-81
2022/09/26 07:07:38;;;;;;;7.63;4.30;;;11.40;99.90;;;;;;6214418;23;20371;-78
2022/09/26 07:10:05;;;;;;;8.57;3.70;;;11.50;99.90;;;;;;6240374;23;20031;-81
2022/09/26 07:12:30;;;;;;;8.43;4.00;;;11.40;99.90;;;;;;6215012;23;20020;-82
2022/09/26 07:14:58;;;;;;;10.27;3.90;;;11.40;99.90;;;;;;6190938;23;20084;-81
2022/09/26 07:17:24;;;;;;;11.63;4.38;;;11.40;99.90;;;;;;6244358;23;20027;-79
2022/09/26 07:19:53;;;;;;;7.57;3.95;;;11.40;99.90;;;;;;6242480;23;20020;-80
2022/09/26 07:22:19;;;;;;;12.30;4.60;;;11.40;99.90;;;;;;6240880;23;20395;-80
2022/09/26 07:24:47;;;;;;;9.45;4.45;;;11.40;99.90;;;;;;6241719;23;20432;-80
2022/09/26 07:27:13;;;;;;;7.07;3.40;;;11.40;99.90;;;;;;6214930;23;20035;-80
2022/09/26 07:29:39;;;;;;;9.25;3.88;;;11.40;99.90;;;;;;6216233;23;20028;-79
2022/09/26 07:32:05;;;;;;;9.23;4.28;;;11.40;99.90;;;;;;6210592;23;20033;-79
2022/09/26 07:34:31;;;;;;;7.63;4.18;;;11.40;99.90;;;;;;6212218;23;20029;-80
2022/09/26 07:36:58;;;;;;;11.38;3.95;;;11.40;99.90;;;;;;6212263;23;20020;-79
2022/09/26 07:39:25;;;;;;;13.45;3.63;;;11.40;99.90;;;;;;6212611;23;20384;-79
2022/09/26 07:41:52;;;;;;;9.35;3.78;;;11.40;99.90;;;;;;6211361;23;20096;-81
2022/09/26 07:44:17;;;;;;;11.40;3.83;;;11.40;99.90;;;;;;6210494;23;20055;-82
2022/09/26 07:52:16;;;;;;;6.38;3.83;;;11.60;99.90;;;;;;6211023;23;20023;-76
2022/09/26 07:54:42;;;;;;;8.57;3.60;;;11.60;99.90;;;;;;6209808;23;20461;-77
2022/09/26 07:57:08;;;;;;;7.13;3.30;;;11.60;99.90;;;;;;6211638;23;20044;-78
2022/09/26 07:59:34;;;;;;;8.88;3.55;;;11.70;99.90;;;;;;6213529;23;20028;-82
2022/09/26 08:02:01;;;;;;;8.43;3.28;;;11.70;99.90;;;;;;6213490;23;20021;-77
2022/09/26 08:04:28;;;;;;;8.10;2.90;;;11.80;99.90;;;;;;6211955;23;20106;-77
2022/09/26 08:06:55;;;;;;;7.47;2.75;;;11.80;99.90;;;;;;6211777;23;20107;-77
2022/09/26 08:09:21;;;;;;;8.80;3.10;;;11.80;99.90;;;;;;6211206;23;20507;-83
2022/09/26 08:11:47;;;;;;;8.80;3.08;;;11.80;99.90;;;;;;6210949;23;20509;-77
2022/09/26 08:14:13;;;;;;;5.80;3.15;;;11.90;99.90;;;;;;6214237;23;20028;-80
2022/09/26 08:16:40;;;;;;;7.53;3.20;;;11.90;99.90;;;;;;6209625;23;20032;-78
2022/09/26 08:19:07;;;;;;;6.68;3.00;;;12.00;99.90;;;;;;6185672;23;20139;-74
2022/09/26 08:21:34;;;;;;;6.28;2.78;;;12.00;99.90;;;;;;6209999;23;20016;-80
2022/09/26 08:24:01;;;;;;;9.27;3.42;;;12.00;99.90;;;;;;6209623;23;20458;-80
2022/09/26 08:26:27;;;;;;;9.27;2.85;;;12.10;99.90;;;;;;6184776;23;20017;-77
2022/09/26 08:28:53;;;;;;;5.85;2.67;;;12.00;99.90;;;;;;6211390;23;20143;-80
2022/09/26 08:31:19;;;;;;;8.93;2.83;;;12.00;99.90;;;;;;6211015;23;20056;-80
2022/09/26 08:33:46;;;;;;;8.13;3.20;;;12.10;99.90;;;;;;6211215;23;20353;-84
2022/09/26 08:36:14;;;;;;;7.40;2.70;;;12.10;99.90;;;;;;6214570;23;20025;-79
2022/09/26 08:38:40;;;;;;;9.00;2.47;;;12.10;99.90;;;;;;6210345;23;20032;-82
2022/09/26 08:41:31;;;;;;;7.55;2.90;;;12.10;99.90;;;;;;6210832;23;20390;-81
2022/09/26 08:44:20;;;;;;;7.40;2.60;;;12.10;99.90;;;;;;6212648;23;20491;-79
2022/09/26 08:47:00;;;;;;;6.13;2.55;;;12.20;99.90;;;;;;6212538;23;20027;-79
2022/09/26 08:49:58;;;;;;;9.45;2.65;;;12.30;99.90;;;;;;6212084;23;20024;-79
2022/09/26 08:52:42;;;;;;;7.65;2.20;;;12.40;99.90;;;;;;6211887;23;20024;-81
2022/09/26 08:55:21;;;;;;;8.13;3.10;;;12.50;99.90;;;;;;6211141;23;20035;-77
2022/09/26 08:57:52;;;;;;;8.63;2.65;;;12.50;99.90;;;;;;6209438;23;20568;-79
2022/09/26 09:00:24;;;;;;;5.45;2.17;;;12.50;99.90;;;;;;6213092;23;20024;-83
2022/09/26 09:03:13;;;;;;;9.18;2.78;;;12.60;99.90;;;;;;6214282;23;20024;-87
2022/09/26 09:05:45;;;;;;;8.57;2.40;;;12.70;99.90;;;;;;6210263;23;20540;-81
2022/09/26 09:08:24;;;;;;;7.95;2.60;;;12.70;99.90;;;;;;6209257;23;20028;-76
2022/09/26 09:11:10;;;;;;;6.55;2.35;;;12.60;99.90;;;;;;6211252;23;20120;-76
2022/09/26 09:13:47;;;;;;;6.60;2.90;;;12.60;99.90;;;;;;6179253;23;20103;-77
2022/09/26 09:16:43;;;;;;;7.20;3.20;;;12.60;99.90;;;;;;6210455;23;20028;-76
2022/09/26 09:19:55;;;;;;;7.30;3.83;;;12.60;99.90;;;;;;6210848;23;20032;-78
2022/09/26 09:22:27;;;;;;;7.88;3.20;;;12.60;99.90;;;;;;6131331;23;20417;-79
2022/09/26 09:25:02;;;;;;;12.18;3.90;;;12.60;99.90;;;;;;6210845;23;20087;-78
2022/09/26 09:27:43;;;;;;;;;;;12.50;99.90;;;;;;6212603;23;20103;-77
2022/09/26 09:30:28;;;;;;;11.95;3.30;;;12.50;99.90;;;;;;6211969;23;20018;-77
2022/09/26 09:32:59;;;;;;;7.85;3.83;;;12.40;99.90;;;;;;6208938;23;20080;-82
2022/09/26 09:35:37;;;;;;;9.70;3.80;;;12.30;99.90;;;;;;6209162;23;20521;-78
2022/09/26 09:38:07;;;;;;;9.70;3.95;;;12.20;99.90;;;;;;6211194;23;20052;-79
2022/09/26 09:40:57;;;;;;;10.18;4.00;;;12.20;99.90;;;;;;6211807;23;20035;-80
2022/09/26 09:43:43;;;;;;;7.88;3.90;;;12.20;99.90;;;;;;6210084;23;20024;-79
2022/09/26 09:46:15;;;;;;;8.02;3.72;;;12.30;99.90;;;;;;6212005;23;20497;-81
2022/09/26 09:48:42;;;;;;;11.57;4.28;;;12.40;99.90;;;;;;6211508;23;20020;-77
2022/09/26 09:51:22;;;;;;;8.32;3.50;;;12.40;99.90;;;;;;6210887;23;20433;-76
2022/09/26 09:54:37;;;;;;;7.40;3.30;;;12.40;99.90;;;;;;6212592;23;20075;-79
2022/09/26 09:57:15;;;;;;;10.80;3.55;;;12.50;99.90;;;;;;6181282;23;20123;-76
2022/09/26 10:00:07;;;;;;;11.48;3.92;;;12.50;99.90;;;;;;6216274;23;20028;-79
2022/09/26 10:02:59;;;;;;;9.93;3.65;;;12.60;99.90;;;;;;6217825;23;20028;-82
2022/09/26 10:05:52;;;;;;;9.80;4.57;;;12.70;99.90;;;;;;6213358;23;20064;-80
2022/09/26 10:08:26;;;;;;;6.80;3.17;;;12.70;99.90;;;;;;6214873;23;20024;-79
2022/09/26 10:11:10;;;;;;;10.05;3.80;;;12.70;99.90;;;;;;6214695;23;20023;-80
2022/09/26 10:13:41;;;;;;;9.60;3.78;;;12.70;99.90;;;;;;6216942;23;20055;-78
2022/09/26 10:16:09;;;;;;;5.75;3.13;;;12.60;99.90;;;;;;6217397;23;20021;-77
2022/09/26 10:18:52;;;;;;;12.35;4.25;;;12.60;99.90;;;;;;6215109;23;20029;-83
2022/09/26 10:21:18;;;;;;;8.32;3.72;;;12.40;99.90;;;;;;6187553;23;20025;-82
2022/09/26 10:23:49;;;;;;;13.93;3.50;;;12.40;99.90;;;;;;6214662;23;20061;-81
2022/09/26 10:26:22;;;;;;;9.52;3.70;;;12.50;99.90;;;;;;6214817;23;20025;-84
2022/09/26 10:28:55;;;;;;;7.22;3.40;;;12.50;99.90;;;;;;6214156;23;20330;-84
2022/09/26 10:31:33;;;;;;;10.70;3.60;;;12.60;99.90;;;;;;6217963;23;20036;-81
2022/09/26 10:34:02;;;;;;;5.85;3.40;;;12.50;99.90;;;;;;6220327;23;20035;-83
2022/09/26 10:36:35;;;;;;;10.90;3.72;;;12.50;99.90;;;;;;6217416;23;20031;-82
2022/09/26 10:42:02;;;;;;;6.60;3.85;;;12.60;99.90;;;;;;6217055;23;20040;-80
2022/09/26 10:44:33;;;;;;;5.20;3.10;;;12.60;99.90;;;;;;6245271;23;20515;-80
2022/09/26 10:47:07;;;;;;;7.65;4.05;;;12.50;99.90;;;;;;6219192;23;20103;-83
2022/09/26 10:49:45;;;;;;;7.00;4.00;;;12.50;99.90;;;;;;6247848;23;20111;-80
2022/09/26 10:52:19;;;;;;;8.57;3.90;;;12.40;99.90;;;;;;6217606;23;20038;-77
2022/09/26 10:55:03;;;;;;;9.52;3.70;;;12.40;99.90;;;;;;6216743;23;20027;-78
2022/09/26 10:57:49;;;;;;;8.65;4.05;;;12.30;99.90;;;;;;6216356;23;20123;-79
2022/09/26 11:00:20;;;;;;;5.00;3.58;;;12.40;99.90;;;;;;6216839;23;20654;-78
2022/09/26 11:02:52;;;;;;;9.13;4.35;;;12.30;99.90;;;;;;6246396;23;20106;-79
2022/09/26 11:08:09;;;;;;;5.82;4.70;;;12.30;99.90;;;;;;6245003;23;20123;-79
2022/09/26 11:10:40;;;;;;;6.13;4.78;;;12.40;99.90;;;;;;6244061;23;20039;-81
2022/09/26 11:13:16;;;;;;;9.13;4.53;;;12.50;99.90;;;;;;6243411;23;20101;-79
2022/09/26 11:16:01;;;;;;;9.75;4.65;;;12.50;99.90;;;;;;6243343;23;20024;-78
2022/09/26 11:19:01;;;;;;;6.88;4.03;;;12.50;99.90;;;;;;6245122;23;20035;-84
2022/09/26 11:22:01;;;;;;;8.15;4.38;;;12.40;99.90;;;;;;6218280;23;20171;-77
2022/09/26 11:24:58;;;;;;;9.57;4.78;;;12.40;99.90;;;;;;6243421;23;20028;-77
2022/09/26 11:27:37;;;;;;;9.65;4.07;;;12.40;99.90;;;;;;6191695;23;20550;-79
2022/09/26 11:30:21;;;;;;;11.43;4.20;;;12.40;99.90;;;;;;6245060;23;20352;-81
2022/09/26 11:32:50;;;;;;;12.63;5.00;;;12.40;99.90;;;;;;6217645;23;20027;-77
2022/09/26 11:35:28;;;;;;;6.78;4.47;;;12.30;99.90;;;;;;6219929;23;20064;-79
2022/09/26 11:38:09;;;;;;;8.55;4.88;;;12.40;99.90;;;;;;6243452;23;20028;-77
2022/09/26 11:40:54;;;;;;;10.70;5.40;;;12.40;99.90;;;;;;6244650;23;20024;-77
2022/09/26 11:43:43;;;;;;;7.00;4.45;;;12.40;99.90;;;;;;6216766;23;20024;-78
2022/09/26 11:46:24;;;;;;;8.07;4.55;;;12.50;99.90;;;;;;6244567;23;20384;-78
2022/09/26 11:49:00;;;;;;;7.03;4.30;;;12.40;99.90;;;;;;6242392;23;20024;-78
2022/09/26 11:51:55;;;;;;;7.70;5.70;;;12.40;99.90;;;;;;6244251;23;20024;-82
2022/09/26 11:54:37;;;;;;;7.82;4.63;;;12.40;99.90;;;;;;6243131;23;20650;-76
2022/09/26 11:57:31;;;;;;;7.32;5.32;;;12.40;99.90;;;;;;6190987;23;20090;-78
2022/09/26 12:00:06;;;;;;;8.23;4.90;;;12.40;99.90;;;;;;6190339;23;20081;-80
2022/09/26 12:03:10;;;;;;;7.55;4.35;;;12.40;99.90;;;;;;6242012;23;20103;-75
2022/09/26 12:06:01;;;;;;;8.63;4.55;;;12.30;99.90;;;;;;6245819;23;20024;-74
2022/09/26 12:09:01;;;;;;;8.13;4.88;;;12.40;99.90;;;;;;6242715;23;20101;-79
2022/09/26 12:11:36;;;;;;;8.25;5.03;;;12.50;99.90;;;;;;6189856;23;20024;-71
2022/09/26 12:14:14;;;;;;;7.70;4.97;;;12.50;99.90;;;;;;6240247;23;20059;-74
2022/09/26 12:16:58;;;;;;;7.72;5.03;;;12.40;99.90;;;;;;6215129;23;20103;-76
2022/09/26 12:19:27;;;;;;;6.38;4.60;;;12.40;99.90;;;;;;6215632;23;20024;-79
2022/09/26 12:22:34;;;;;;;8.52;5.40;;;12.60;99.90;;;;;;6242087;23;20044;-75
2022/09/26 12:25:36;;;;;;;9.02;5.15;;;12.60;99.90;;;;;;6213878;23;20024;-77
2022/09/26 12:28:15;;;;;;;8.07;5.32;;;12.60;99.90;;;;;;6214273;23;20103;-76
2022/09/26 12:31:04;;;;;;;8.30;5.35;;;12.60;99.90;;;;;;6214725;23;20035;-80
2022/09/26 12:33:42;;;;;;;10.48;6.25;;;12.60;99.90;;;;;;6243002;23;20391;-75
2022/09/26 12:36:21;;;;;;;9.77;6.18;;;12.60;99.90;;;;;;6242136;23;20035;-74
2022/09/26 12:39:08;;;;;;;10.57;6.78;;;12.60;99.90;;;;;;6215226;23;20077;-77
2022/09/26 12:41:59;;;;;;;12.68;7.07;;;12.60;99.90;;;;;;6241782;23;20024;-71
2022/09/26 12:44:37;;;;;;;10.52;7.45;;;12.60;99.90;;;;;;6241246;23;20027;-72
2022/09/26 12:47:05;;;;;;;12.05;7.22;;;12.70;99.90;;;;;;6214461;23;20024;-71
2022/09/26 12:49:40;;;;;;;11.32;7.25;;;12.70;99.90;;;;;;6242017;23;20028;-72
2022/09/26 12:52:21;;;;;;;13.90;6.65;;;12.80;99.90;;;;;;6214519;23;20031;-75
2022/09/26 12:55:12;;;;;;;12.20;6.55;;;12.80;99.90;;;;;;6189620;23;20024;-72
2022/09/26 12:57:59;;;;;;;15.45;6.15;;;12.80;99.90;;;;;;6215112;23;20494;-78
2022/09/26 13:00:32;;;;;;;14.50;6.20;;;12.80;99.90;;;;;;6239905;23;20027;-77
2022/09/26 13:02:57;;;;;;;16.40;7.55;;;12.70;99.90;;;;;;6241681;23;20468;-80
2022/09/26 13:05:51;;;;;;;11.85;7.15;;;12.70;99.90;;;;;;6243769;23;20070;-71
2022/09/26 13:08:41;;;;;;;17.45;7.03;;;12.70;99.90;;;;;;6214718;23;20028;-71
2022/09/26 13:11:32;;;;;;;17.73;7.15;;;12.70;99.90;;;;;;6241522;23;20466;-77
2022/09/26 13:14:17;;;;;;;15.82;6.50;;;12.70;99.90;;;;;;6241422;23;20319;-73
2022/09/26 13:17:10;;;;;;;9.18;6.10;;;12.70;99.90;;;;;;6189346;23;20020;-75
2022/09/26 13:20:00;;;;;;;13.25;7.45;;;12.70;99.90;;;;;;6214714;23;20464;-73
2022/09/26 13:22:30;;;;;;;11.50;4.85;;;12.80;99.90;;;;;;6244148;23;20051;-73
2022/09/26 13:25:00;;;;;;;8.82;5.95;;;13.00;99.90;;;;;;6243517;23;20035;-72
2022/09/26 13:27:36;;;;;;;17.88;7.35;;;13.10;99.90;;;;;;6217354;23;20495;-75
2022/09/26 13:30:25;;;;;;;144.95;18.02;;;14.00;99.90;;;;;;6243611;23;20082;-75
2022/09/26 13:33:17;;;;;;;244.70;26.40;;;16.10;99.90;;;;;;6243707;23;20027;-78